F/V Anthineas — FQVN — position and weather

sailwx.info

Track history (hours):
 
Tides and Currents Weather Stations Pressure Air Temp Water Temp Dewpoint Dewpoint Depression Visibility Wind Speed Wind Dir Waves Ship Positions

F/V Anthineas

Last reported at 2017-Sep-24 08:30 UTC. Time now 2017-Sep-24 08:52 UTC.
Position N 46°09' W 001°52'.

Length 23 m.

Type: Fishing. MMSI: 228367000.

Date/timePositionNaut miles runAvg speedWind from/ knotsBaromVisibWave heightAir tempDewpointWater temp
2017-Sep-24 08:30N 46°09' W 001°52'2 3.5
2017-Sep-24 08:00N 46°10' W 001°49'0 0.6
2017-Sep-24 07:30N 46°09' W 001°50'1 1.1
2017-Sep-24 06:59N 46°10' W 001°49'0 0.4
2017-Sep-24 06:30N 46°10' W 001°49'0 0.9
2017-Sep-24 06:00N 46°10' W 001°49'4 8.0
2017-Sep-24 05:30N 46°14' W 001°50'510.0
2017-Sep-24 05:00N 46°19' W 001°49'5 9.9
2017-Sep-24 04:30N 46°24' W 001°48'5 9.9
2017-Sep-24 04:00N 46°29' W 001°47'  
2017-Sep-21 18:49N 46°30' W 001°47'0 0.4
2017-Sep-21 18:31N 46°30' W 001°47'2 3.4
2017-Sep-21 18:01N 46°28' W 001°47'510.1
2017-Sep-21 17:30N 46°25' W 001°53'0 0.7
2017-Sep-21 17:01N 46°25' W 001°53'1 1.8
2017-Sep-21 16:31N 46°25' W 001°54'3 6.0
2017-Sep-21 16:01N 46°28' W 001°56'2 4.9
2017-Sep-21 15:30N 46°30' W 001°59'1 1.8
2017-Sep-21 15:01N 46°29' W 001°60'0 0.6
2017-Sep-21 14:30N 46°29' W 001°59'0 0.5
2017-Sep-21 14:01N 46°29' W 001°60'0 0.4
2017-Sep-21 13:31N 46°29' W 001°60'2 4.5
2017-Sep-21 13:00N 46°28' W 001°57'1 1.6
2017-Sep-21 12:31N 46°28' W 001°57'1 2.1
2017-Sep-21 12:00N 46°27' W 001°55'2 3.3
2017-Sep-21 11:30N 46°26' W 001°55'1 2.6
2017-Sep-21 11:01N 46°24' W 001°56'1 2.0
2017-Sep-21 10:31N 46°25' W 001°55'0 0.9
2017-Sep-21 10:01N 46°25' W 001°54'1 1.3
2017-Sep-21 09:31N 46°24' W 001°55'0 0.5
2017-Sep-21 09:00N 46°24' W 001°54'1 1.2
2017-Sep-21 08:30N 46°23' W 001°54'1 1.5
2017-Sep-21 08:00N 46°23' W 001°53'1 2.6
2017-Sep-21 07:31N 46°23' W 001°51'2 4.4
2017-Sep-21 07:00N 46°21' W 001°52'1 1.5
2017-Sep-21 06:31N 46°21' W 001°51'1 2.0
2017-Sep-21 06:00N 46°21' W 001°49'4 7.5
2017-Sep-21 05:31N 46°24' W 001°49'5 9.6
2017-Sep-21 05:01N 46°29' W 001°47'1 2.0
2017-Sep-21 04:31N 46°30' W 001°47'0 0.0
2017-Sep-21 04:00N 46°30' W 001°47'0 0.0
2017-Sep-21 03:31N 46°30' W 001°47'0 0.0
2017-Sep-21 03:01N 46°30' W 001°47'0 0.0
2017-Sep-21 02:31N 46°30' W 001°47'0 0.0
2017-Sep-21 02:00N 46°30' W 001°47'0 0.0
2017-Sep-21 01:30N 46°30' W 001°47'0 0.0
2017-Sep-21 01:01N 46°30' W 001°47'0 0.0
2017-Sep-21 00:31N 46°30' W 001°47'0 0.0
2017-Sep-21 00:01N 46°30' W 001°47'0 0.0
2017-Sep-20 23:31N 46°30' W 001°47'0 0.0
2017-Sep-20 23:01N 46°30' W 001°47'0 0.0
2017-Sep-20 22:31N 46°30' W 001°47'0 0.0
2017-Sep-20 22:00N 46°30' W 001°47'0 0.0
2017-Sep-20 21:30N 46°30' W 001°47'0 0.0
2017-Sep-20 21:01N 46°30' W 001°47'0 0.0
2017-Sep-20 20:31N 46°30' W 001°47'0 0.0
2017-Sep-20 20:00N 46°30' W 001°47'0 0.0
2017-Sep-20 19:31N 46°30' W 001°47'0 0.0
2017-Sep-20 19:01N 46°30' W 001°47'0 0.3
2017-Sep-20 18:31N 46°30' W 001°47'3 5.3
2017-Sep-20 18:01N 46°27' W 001°47'510.4
2017-Sep-20 17:31N 46°22' W 001°48'1 1.9
2017-Sep-20 17:01N 46°21' W 001°49'1 2.3
2017-Sep-20 16:31N 46°22' W 001°50'2 4.2
2017-Sep-20 16:01N 46°21' W 001°47'0 0.5
2017-Sep-20 15:30N 46°22' W 001°47'1 1.4
2017-Sep-20 15:01N 46°22' W 001°48'2 1.6
2017-Sep-20 14:01N 46°21' W 001°50'1 1.8
2017-Sep-20 13:31N 46°21' W 001°49'1 2.5
2017-Sep-20 13:01N 46°20' W 001°50'1 2.7
2017-Sep-20 12:31N 46°19' W 001°51'5 9.2
2017-Sep-20 12:01N 46°15' W 001°55'0 0.5
2017-Sep-20 11:30N 46°15' W 001°55'0 0.5
2017-Sep-20 11:00N 46°15' W 001°55'1 1.7
2017-Sep-20 10:30N 46°14' W 001°56'1 1.0
2017-Sep-20 09:54N 46°14' W 001°57'1 3.3
2017-Sep-20 09:30N 46°15' W 001°58'0 0.3
2017-Sep-20 09:00N 46°15' W 001°58'1 1.7
2017-Sep-20 08:07N 46°16' W 001°59'0 0.6
2017-Sep-20 07:38N 46°16' W 001°59'1 6.3
2017-Sep-20 07:29N 46°16' W 001°57'4 5.2
2017-Sep-20 06:48N 46°18' W 002°01'0 0.8
2017-Sep-20 06:28N 46°18' W 002°00'1 2.7
2017-Sep-20 05:58N 46°19' W 001°59'1 2.4
2017-Sep-20 05:30N 46°18' W 001°60'5 2.5
2017-Sep-20 03:31N 46°22' W 001°55'2 4.0
2017-Sep-20 02:54N 46°24' W 001°53'2 4.1
2017-Sep-20 02:30N 46°25' W 001°51'2 3.9
2017-Sep-20 02:01N 46°27' W 001°50'2 3.9
2017-Sep-20 01:31N 46°28' W 001°48'2 3.7
2017-Sep-20 01:00N 46°30' W 001°47'0 0.0
2017-Sep-20 00:31N 46°30' W 001°47'2 3.2
2017-Sep-20 00:01N 46°28' W 001°47'1 2.3
2017-Sep-19 23:30N 46°27' W 001°47'1 2.6
2017-Sep-19 23:00N 46°26' W 001°47'1 2.7
2017-Sep-19 22:30N 46°24' W 001°47'1 2.7
2017-Sep-19 22:01N 46°23' W 001°47'2 3.1
2017-Sep-19 21:31N 46°22' W 001°47'2 3.2
2017-Sep-19 21:01N 46°20' W 001°47'2 3.0
2017-Sep-19 20:31N 46°18' W 001°47'2 3.3
2017-Sep-19 19:58N 46°17' W 001°47'6 0.8
2017-Sep-19 12:20N 46°14' W 001°54'0 0.8
2017-Sep-19 12:00N 46°14' W 001°55'1 2.2
2017-Sep-19 11:30N 46°14' W 001°56'1 2.2
2017-Sep-19 11:00N 46°13' W 001°55'1 1.0
2017-Sep-19 10:18N 46°13' W 001°56'1 1.6
2017-Sep-19 09:58N 46°13' W 001°57'1 1.3
2017-Sep-19 09:02N 46°13' W 001°55'1 5.2
2017-Sep-19 08:50N 46°14' W 001°56'2 6.2
2017-Sep-19 08:30N 46°13' W 001°53'2 4.9
2017-Sep-19 08:00N 46°12' W 001°50'0 0.9
2017-Sep-19 07:30N 46°12' W 001°51'1 2.3
2017-Sep-19 07:00N 46°11' W 001°49'1 1.3
2017-Sep-19 06:30N 46°11' W 001°49'0 0.6
2017-Sep-19 05:45N 46°11' W 001°49'2 5.8
2017-Sep-19 05:28N 46°12' W 001°48'6 8.8
2017-Sep-19 04:46N 46°19' W 001°48'2 8.9
2017-Sep-19 04:30N 46°21' W 001°47'4 8.8
2017-Sep-19 04:00N 46°25' W 001°47'4 8.5
2017-Sep-19 03:31N 46°30' W 001°48'0 0.0
2017-Sep-18 17:16N 46°30' W 001°47'0 0.0
2017-Sep-18 17:00N 46°30' W 001°47'0 0.0
2017-Sep-18 16:30N 46°30' W 001°47'0 0.0
2017-Sep-18 16:00N 46°30' W 001°47'0 0.0
2017-Sep-18 15:30N 46°30' W 001°47'0 0.0
2017-Sep-18 15:00N 46°30' W 001°47'0 0.2
2017-Sep-18 14:30N 46°30' W 001°47'0 0.2
2017-Sep-18 14:00N 46°30' W 001°47'0 0.0
2017-Sep-18 13:30N 46°30' W 001°47'0 0.0
2017-Sep-18 13:00N 46°30' W 001°47'0 0.0
2017-Sep-18 12:31N 46°30' W 001°47'0 0.0
2017-Sep-18 12:00N 46°30' W 001°47'0 0.0
2017-Sep-18 11:30N 46°30' W 001°47'0 0.0
2017-Sep-18 11:00N 46°30' W 001°47'0 0.0
2017-Sep-18 10:30N 46°30' W 001°47'0 0.0
2017-Sep-18 10:00N 46°30' W 001°47'0 0.0
2017-Sep-18 09:30N 46°30' W 001°47'0 0.0
2017-Sep-18 09:00N 46°30' W 001°47'0 0.0
2017-Sep-18 08:30N 46°30' W 001°47'0 0.0
2017-Sep-18 08:00N 46°30' W 001°47'0 0.0
2017-Sep-18 07:30N 46°30' W 001°47'0 0.0
2017-Sep-18 07:00N 46°30' W 001°47'0 0.0
2017-Sep-17 22:51N 46°30' W 001°47'0 0.5
2017-Sep-17 22:31N 46°30' W 001°47'1 1.5
2017-Sep-17 22:01N 46°29' W 001°47'3 6.1
2017-Sep-17 21:30N 46°26' W 001°46'3 7.0
2017-Sep-17 21:00N 46°23' W 001°46'4 7.2
2017-Sep-17 20:31N 46°19' W 001°46'3 5.0
2017-Sep-17 20:01N 46°17' W 001°46'2 4.4
2017-Sep-17 19:30N 46°15' W 001°47'2 4.3
2017-Sep-17 19:00N 46°12' W 001°48'2 4.2
2017-Sep-17 18:30N 46°10' W 001°48'1 1.5
2017-Sep-17 17:31N 46°09' W 001°49'0 2.4
2017-Sep-17 17:30N 46°09' W 001°49'1 0.8
2017-Sep-17 16:09N 46°10' W 001°48'1 4.2
2017-Sep-17 16:00N 46°10' W 001°47'1 0.8
2017-Sep-17 15:01N 46°10' W 001°46'1 5.2
2017-Sep-17 14:49N 46°11' W 001°46'1 0.7
2017-Sep-17 13:34N 46°11' W 001°48'2 2.0
2017-Sep-17 12:22N 46°09' W 001°49'0 0.4
2017-Sep-17 11:19N 46°09' W 001°49'0 0.2
2017-Sep-17 10:19N 46°09' W 001°49'1 3.3
2017-Sep-17 09:59N 46°10' W 001°50'1 0.8
2017-Sep-17 09:00N 46°10' W 001°51'1 1.3
2017-Sep-17 08:28N 46°10' W 001°50'0 0.9
2017-Sep-17 08:00N 46°10' W 001°50'1 2.3
2017-Sep-17 07:25N 46°10' W 001°52'2 1.9
2017-Sep-17 06:24N 46°10' W 001°49'1 2.8
2017-Sep-17 06:00N 46°11' W 001°49'0 0.8
2017-Sep-17 05:27N 46°11' W 001°49'0 0.2
2017-Sep-17 04:58N 46°11' W 001°49'5 3.0
2017-Sep-17 03:20N 46°16' W 001°48'1 3.3
2017-Sep-17 03:00N 46°17' W 001°48'2 3.3
2017-Sep-17 02:31N 46°18' W 001°48'2 3.1
2017-Sep-17 02:01N 46°20' W 001°48'2 3.0
2017-Sep-17 01:31N 46°21' W 001°48'2 3.1
2017-Sep-17 01:00N 46°23' W 001°47'2 3.2
2017-Sep-17 00:30N 46°24' W 001°47'2 3.2
2017-Sep-17 00:01N 46°26' W 001°47'2 3.2
2017-Sep-16 23:30N 46°28' W 001°47'2 3.8
2017-Sep-16 23:01N 46°30' W 001°48'0 0.9
2017-Sep-16 22:31N 46°30' W 001°47'0 0.1
2017-Sep-16 22:01N 46°30' W 001°47'2 3.5
2017-Sep-16 21:30N 46°28' W 001°47'3 5.3
2017-Sep-16 21:01N 46°26' W 001°47'3 5.8
2017-Sep-16 20:31N 46°23' W 001°47'3 5.8
2017-Sep-16 20:01N 46°20' W 001°47'3 5.7
2017-Sep-16 19:30N 46°17' W 001°48'3 5.3
2017-Sep-16 19:00N 46°14' W 001°48'2 5.0
2017-Sep-16 18:31N 46°12' W 001°48'1 0.8
2017-Sep-16 17:21N 46°11' W 001°49'1 1.8
2017-Sep-16 16:59N 46°11' W 001°49'1 2.8
2017-Sep-16 16:28N 46°11' W 001°51'1 2.1
2017-Sep-16 15:53N 46°12' W 001°52'0 0.3
2017-Sep-16 15:24N 46°13' W 001°52'0 0.3
2017-Sep-16 14:54N 46°13' W 001°52'1 2.2
2017-Sep-16 14:30N 46°13' W 001°53'3 5.1
2017-Sep-16 14:00N 46°13' W 001°49'0 0.2
2017-Sep-16 13:30N 46°13' W 001°49'0 0.5
2017-Sep-16 13:01N 46°14' W 001°50'0 0.7
2017-Sep-16 12:30N 46°13' W 001°50'1 2.3
2017-Sep-16 12:00N 46°13' W 001°52'1 1.1
2017-Sep-16 11:31N 46°14' W 001°51'0 0.2
2017-Sep-16 11:00N 46°14' W 001°51'0 0.6
2017-Sep-16 10:30N 46°14' W 001°52'5 9.1
2017-Sep-16 09:59N 46°16' W 001°46'1 2.4
2017-Sep-16 09:30N 46°17' W 001°44'1 2.2
2017-Sep-16 09:01N 46°18' W 001°44'2 3.9
2017-Sep-16 08:31N 46°18' W 001°47'1 2.8
2017-Sep-16 08:00N 46°18' W 001°49'1 2.6
2017-Sep-16 07:31N 46°17' W 001°50'3 5.5
2017-Sep-16 07:01N 46°20' W 001°50'1 1.6
2017-Sep-16 06:31N 46°21' W 001°50'1 2.6
2017-Sep-16 06:01N 46°20' W 001°49'1 3.0
2017-Sep-16 05:30N 46°21' W 001°50'2 4.0
2017-Sep-16 05:01N 46°23' W 001°49'2 4.0
2017-Sep-16 04:30N 46°25' W 001°48'2 4.1
2017-Sep-16 04:00N 46°27' W 001°48'2 4.3
2017-Sep-16 03:31N 46°29' W 001°47'0 0.1
2017-Sep-15 19:25N 46°30' W 001°48'2 4.0
2017-Sep-15 19:01N 46°28' W 001°48'4 7.2
2017-Sep-15 18:30N 46°28' W 001°53'3 5.3
2017-Sep-15 18:00N 46°28' W 001°57'0 0.4
2017-Sep-15 17:31N 46°28' W 001°57'0 0.5
2017-Sep-15 17:00N 46°28' W 001°57'2 3.5
2017-Sep-15 16:30N 46°26' W 001°57'1 1.3
2017-Sep-15 16:01N 46°27' W 001°58'0 0.6
2017-Sep-15 15:31N 46°27' W 001°57'0 0.3
2017-Sep-15 15:01N 46°27' W 001°57'1 1.6
2017-Sep-15 14:30N 46°28' W 001°57'2 3.3
2017-Sep-15 14:01N 46°28' W 001°59'1 1.3
2017-Sep-15 13:30N 46°28' W 002°00'0 0.4
2017-Sep-15 13:00N 46°28' W 002°00'0 0.2
2017-Sep-15 12:31N 46°28' W 002°00'1 1.3
2017-Sep-15 12:01N 46°29' W 002°01'1 1.5
2017-Sep-15 11:31N 46°29' W 002°02'1 2.0
2017-Sep-15 11:00N 46°29' W 002°03'1 1.1
2017-Sep-15 10:30N 46°29' W 002°03'0 0.4
2017-Sep-15 10:01N 46°29' W 002°04'1 1.5
2017-Sep-15 09:30N 46°29' W 002°05'2 3.1
2017-Sep-15 09:01N 46°29' W 002°02'1 1.3
2017-Sep-15 08:30N 46°29' W 002°03'1 2.8
2017-Sep-15 08:00N 46°30' W 002°02'0 0.5
2017-Sep-15 07:31N 46°30' W 002°03'1 1.7
2017-Sep-15 07:00N 46°30' W 002°04'1 1.2
2017-Sep-15 06:31N 46°30' W 002°03'1 2.2
2017-Sep-15 06:00N 46°31' W 002°03'1 2.6
2017-Sep-15 05:30N 46°30' W 002°02'1 2.5
2017-Sep-15 05:01N 46°30' W 002°00'2 3.5
2017-Sep-15 04:31N 46°29' W 001°58'2 3.6
2017-Sep-15 04:01N 46°29' W 001°56'2 3.6
2017-Sep-15 03:30N 46°28' W 001°53'2 3.6
2017-Sep-15 03:00N 46°28' W 001°51'2 3.7
2017-Sep-15 02:30N 46°28' W 001°48'2 3.6
2017-Sep-15 02:00N 46°30' W 001°48'0 0.0
2017-Sep-14 10:05N 46°30' W 001°47'0 0.0
2017-Sep-14 10:01N 46°30' W 001°47'0 0.0
2017-Sep-14 09:31N 46°30' W 001°47'0 0.0
2017-Sep-14 09:01N 46°30' W 001°47'0 0.0
2017-Sep-14 08:30N 46°30' W 001°47'  
Track history (hours):
 
Tides and Currents Weather Stations Pressure Air Temp Water Temp Dewpoint Dewpoint Depression Visibility Wind Speed Wind Dir Waves Ship Positions

F/V Anthineas

Last reported at 2017-Sep-24 08:30 UTC. Time now 2017-Sep-24 08:52 UTC.
Position N 46°09' W 001°52'.

Length 23 m.

Type: Fishing. MMSI: 228367000.

Date/timePositionNaut miles runAvg speedWind from/ knotsBaromVisibWave heightAir tempDewpointWater temp
2017-Sep-24 08:30N 46°09' W 001°52'2 3.5
2017-Sep-24 08:00N 46°10' W 001°49'0 0.6
2017-Sep-24 07:30N 46°09' W 001°50'1 1.1
2017-Sep-24 06:59N 46°10' W 001°49'0 0.4
2017-Sep-24 06:30N 46°10' W 001°49'0 0.9
2017-Sep-24 06:00N 46°10' W 001°49'4 8.0
2017-Sep-24 05:30N 46°14' W 001°50'510.0
2017-Sep-24 05:00N 46°19' W 001°49'5 9.9
2017-Sep-24 04:30N 46°24' W 001°48'5 9.9
2017-Sep-24 04:00N 46°29' W 001°47'  
2017-Sep-21 18:49N 46°30' W 001°47'0 0.4
2017-Sep-21 18:31N 46°30' W 001°47'2 3.4
2017-Sep-21 18:01N 46°28' W 001°47'510.1
2017-Sep-21 17:30N 46°25' W 001°53'0 0.7
2017-Sep-21 17:01N 46°25' W 001°53'1 1.8
2017-Sep-21 16:31N 46°25' W 001°54'3 6.0
2017-Sep-21 16:01N 46°28' W 001°56'2 4.9
2017-Sep-21 15:30N 46°30' W 001°59'1 1.8
2017-Sep-21 15:01N 46°29' W 001°60'0 0.6
2017-Sep-21 14:30N 46°29' W 001°59'0 0.5
2017-Sep-21 14:01N 46°29' W 001°60'0 0.4
2017-Sep-21 13:31N 46°29' W 001°60'2 4.5
2017-Sep-21 13:00N 46°28' W 001°57'1 1.6
2017-Sep-21 12:31N 46°28' W 001°57'1 2.1
2017-Sep-21 12:00N 46°27' W 001°55'2 3.3
2017-Sep-21 11:30N 46°26' W 001°55'1 2.6
2017-Sep-21 11:01N 46°24' W 001°56'1 2.0
2017-Sep-21 10:31N 46°25' W 001°55'0 0.9
2017-Sep-21 10:01N 46°25' W 001°54'1 1.3
2017-Sep-21 09:31N 46°24' W 001°55'0 0.5
2017-Sep-21 09:00N 46°24' W 001°54'1 1.2
2017-Sep-21 08:30N 46°23' W 001°54'1 1.5
2017-Sep-21 08:00N 46°23' W 001°53'1 2.6
2017-Sep-21 07:31N 46°23' W 001°51'2 4.4
2017-Sep-21 07:00N 46°21' W 001°52'1 1.5
2017-Sep-21 06:31N 46°21' W 001°51'1 2.0
2017-Sep-21 06:00N 46°21' W 001°49'4 7.5
2017-Sep-21 05:31N 46°24' W 001°49'5 9.6
2017-Sep-21 05:01N 46°29' W 001°47'1 2.0
2017-Sep-21 04:31N 46°30' W 001°47'0 0.0
2017-Sep-21 04:00N 46°30' W 001°47'0 0.0
2017-Sep-21 03:31N 46°30' W 001°47'0 0.0
2017-Sep-21 03:01N 46°30' W 001°47'0 0.0
2017-Sep-21 02:31N 46°30' W 001°47'0 0.0
2017-Sep-21 02:00N 46°30' W 001°47'0 0.0
2017-Sep-21 01:30N 46°30' W 001°47'0 0.0
2017-Sep-21 01:01N 46°30' W 001°47'0 0.0
2017-Sep-21 00:31N 46°30' W 001°47'0 0.0
2017-Sep-21 00:01N 46°30' W 001°47'0 0.0
2017-Sep-20 23:31N 46°30' W 001°47'0 0.0
2017-Sep-20 23:01N 46°30' W 001°47'0 0.0
2017-Sep-20 22:31N 46°30' W 001°47'0 0.0
2017-Sep-20 22:00N 46°30' W 001°47'0 0.0
2017-Sep-20 21:30N 46°30' W 001°47'0 0.0
2017-Sep-20 21:01N 46°30' W 001°47'0 0.0
2017-Sep-20 20:31N 46°30' W 001°47'0 0.0
2017-Sep-20 20:00N 46°30' W 001°47'0 0.0
2017-Sep-20 19:31N 46°30' W 001°47'0 0.0
2017-Sep-20 19:01N 46°30' W 001°47'0 0.3
2017-Sep-20 18:31N 46°30' W 001°47'3 5.3
2017-Sep-20 18:01N 46°27' W 001°47'510.4
2017-Sep-20 17:31N 46°22' W 001°48'1 1.9
2017-Sep-20 17:01N 46°21' W 001°49'1 2.3
2017-Sep-20 16:31N 46°22' W 001°50'2 4.2
2017-Sep-20 16:01N 46°21' W 001°47'0 0.5
2017-Sep-20 15:30N 46°22' W 001°47'1 1.4
2017-Sep-20 15:01N 46°22' W 001°48'2 1.6
2017-Sep-20 14:01N 46°21' W 001°50'1 1.8
2017-Sep-20 13:31N 46°21' W 001°49'1 2.5
2017-Sep-20 13:01N 46°20' W 001°50'1 2.7
2017-Sep-20 12:31N 46°19' W 001°51'5 9.2
2017-Sep-20 12:01N 46°15' W 001°55'0 0.5
2017-Sep-20 11:30N 46°15' W 001°55'0 0.5
2017-Sep-20 11:00N 46°15' W 001°55'1 1.7
2017-Sep-20 10:30N 46°14' W 001°56'1 1.0
2017-Sep-20 09:54N 46°14' W 001°57'1 3.3
2017-Sep-20 09:30N 46°15' W 001°58'0 0.3
2017-Sep-20 09:00N 46°15' W 001°58'1 1.7
2017-Sep-20 08:07N 46°16' W 001°59'0 0.6
2017-Sep-20 07:38N 46°16' W 001°59'1 6.3
2017-Sep-20 07:29N 46°16' W 001°57'4 5.2
2017-Sep-20 06:48N 46°18' W 002°01'0 0.8
2017-Sep-20 06:28N 46°18' W 002°00'1 2.7
2017-Sep-20 05:58N 46°19' W 001°59'1 2.4
2017-Sep-20 05:30N 46°18' W 001°60'5 2.5
2017-Sep-20 03:31N 46°22' W 001°55'2 4.0
2017-Sep-20 02:54N 46°24' W 001°53'2 4.1
2017-Sep-20 02:30N 46°25' W 001°51'2 3.9
2017-Sep-20 02:01N 46°27' W 001°50'2 3.9
2017-Sep-20 01:31N 46°28' W 001°48'2 3.7
2017-Sep-20 01:00N 46°30' W 001°47'0 0.0
2017-Sep-20 00:31N 46°30' W 001°47'2 3.2
2017-Sep-20 00:01N 46°28' W 001°47'1 2.3
2017-Sep-19 23:30N 46°27' W 001°47'1 2.6
2017-Sep-19 23:00N 46°26' W 001°47'1 2.7
2017-Sep-19 22:30N 46°24' W 001°47'1 2.7
2017-Sep-19 22:01N 46°23' W 001°47'2 3.1
2017-Sep-19 21:31N 46°22' W 001°47'2 3.2
2017-Sep-19 21:01N 46°20' W 001°47'2 3.0
2017-Sep-19 20:31N 46°18' W 001°47'2 3.3
2017-Sep-19 19:58N 46°17' W 001°47'6 0.8
2017-Sep-19 12:20N 46°14' W 001°54'0 0.8
2017-Sep-19 12:00N 46°14' W 001°55'1 2.2
2017-Sep-19 11:30N 46°14' W 001°56'1 2.2
2017-Sep-19 11:00N 46°13' W 001°55'1 1.0
2017-Sep-19 10:18N 46°13' W 001°56'1 1.6
2017-Sep-19 09:58N 46°13' W 001°57'1 1.3
2017-Sep-19 09:02N 46°13' W 001°55'1 5.2
2017-Sep-19 08:50N 46°14' W 001°56'2 6.2
2017-Sep-19 08:30N 46°13' W 001°53'2 4.9
2017-Sep-19 08:00N 46°12' W 001°50'0 0.9
2017-Sep-19 07:30N 46°12' W 001°51'1 2.3
2017-Sep-19 07:00N 46°11' W 001°49'1 1.3
2017-Sep-19 06:30N 46°11' W 001°49'0 0.6
2017-Sep-19 05:45N 46°11' W 001°49'2 5.8
2017-Sep-19 05:28N 46°12' W 001°48'6 8.8
2017-Sep-19 04:46N 46°19' W 001°48'2 8.9
2017-Sep-19 04:30N 46°21' W 001°47'4 8.8
2017-Sep-19 04:00N 46°25' W 001°47'4 8.5
2017-Sep-19 03:31N 46°30' W 001°48'0 0.0
2017-Sep-18 17:16N 46°30' W 001°47'0 0.0
2017-Sep-18 17:00N 46°30' W 001°47'0 0.0
2017-Sep-18 16:30N 46°30' W 001°47'0 0.0
2017-Sep-18 16:00N 46°30' W 001°47'0 0.0
2017-Sep-18 15:30N 46°30' W 001°47'0 0.0
2017-Sep-18 15:00N 46°30' W 001°47'0 0.2
2017-Sep-18 14:30N 46°30' W 001°47'0 0.2
2017-Sep-18 14:00N 46°30' W 001°47'0 0.0
2017-Sep-18 13:30N 46°30' W 001°47'0 0.0
2017-Sep-18 13:00N 46°30' W 001°47'0 0.0
2017-Sep-18 12:31N 46°30' W 001°47'0 0.0
2017-Sep-18 12:00N 46°30' W 001°47'0 0.0
2017-Sep-18 11:30N 46°30' W 001°47'0 0.0
2017-Sep-18 11:00N 46°30' W 001°47'0 0.0
2017-Sep-18 10:30N 46°30' W 001°47'0 0.0
2017-Sep-18 10:00N 46°30' W 001°47'0 0.0
2017-Sep-18 09:30N 46°30' W 001°47'0 0.0
2017-Sep-18 09:00N 46°30' W 001°47'0 0.0
2017-Sep-18 08:30N 46°30' W 001°47'0 0.0
2017-Sep-18 08:00N 46°30' W 001°47'0 0.0
2017-Sep-18 07:30N 46°30' W 001°47'0 0.0
2017-Sep-18 07:00N 46°30' W 001°47'0 0.0
2017-Sep-17 22:51N 46°30' W 001°47'0 0.5
2017-Sep-17 22:31N 46°30' W 001°47'1 1.5
2017-Sep-17 22:01N 46°29' W 001°47'3 6.1
2017-Sep-17 21:30N 46°26' W 001°46'3 7.0
2017-Sep-17 21:00N 46°23' W 001°46'4 7.2
2017-Sep-17 20:31N 46°19' W 001°46'3 5.0
2017-Sep-17 20:01N 46°17' W 001°46'2 4.4
2017-Sep-17 19:30N 46°15' W 001°47'2 4.3
2017-Sep-17 19:00N 46°12' W 001°48'2 4.2
2017-Sep-17 18:30N 46°10' W 001°48'1 1.5
2017-Sep-17 17:31N 46°09' W 001°49'0 2.4
2017-Sep-17 17:30N 46°09' W 001°49'1 0.8
2017-Sep-17 16:09N 46°10' W 001°48'1 4.2
2017-Sep-17 16:00N 46°10' W 001°47'1 0.8
2017-Sep-17 15:01N 46°10' W 001°46'1 5.2
2017-Sep-17 14:49N 46°11' W 001°46'1 0.7
2017-Sep-17 13:34N 46°11' W 001°48'2 2.0
2017-Sep-17 12:22N 46°09' W 001°49'0 0.4
2017-Sep-17 11:19N 46°09' W 001°49'0 0.2
2017-Sep-17 10:19N 46°09' W 001°49'1 3.3
2017-Sep-17 09:59N 46°10' W 001°50'1 0.8
2017-Sep-17 09:00N 46°10' W 001°51'1 1.3
2017-Sep-17 08:28N 46°10' W 001°50'0 0.9
2017-Sep-17 08:00N 46°10' W 001°50'1 2.3
2017-Sep-17 07:25N 46°10' W 001°52'2 1.9
2017-Sep-17 06:24N 46°10' W 001°49'1 2.8
2017-Sep-17 06:00N 46°11' W 001°49'0 0.8
2017-Sep-17 05:27N 46°11' W 001°49'0 0.2
2017-Sep-17 04:58N 46°11' W 001°49'5 3.0
2017-Sep-17 03:20N 46°16' W 001°48'1 3.3
2017-Sep-17 03:00N 46°17' W 001°48'2 3.3
2017-Sep-17 02:31N 46°18' W 001°48'2 3.1
2017-Sep-17 02:01N 46°20' W 001°48'2 3.0
2017-Sep-17 01:31N 46°21' W 001°48'2 3.1
2017-Sep-17 01:00N 46°23' W 001°47'2 3.2
2017-Sep-17 00:30N 46°24' W 001°47'2 3.2
2017-Sep-17 00:01N 46°26' W 001°47'2 3.2
2017-Sep-16 23:30N 46°28' W 001°47'2 3.8
2017-Sep-16 23:01N 46°30' W 001°48'0 0.9
2017-Sep-16 22:31N 46°30' W 001°47'0 0.1
2017-Sep-16 22:01N 46°30' W 001°47'2 3.5
2017-Sep-16 21:30N 46°28' W 001°47'3 5.3
2017-Sep-16 21:01N 46°26' W 001°47'3 5.8
2017-Sep-16 20:31N 46°23' W 001°47'3 5.8
2017-Sep-16 20:01N 46°20' W 001°47'3 5.7
2017-Sep-16 19:30N 46°17' W 001°48'3 5.3
2017-Sep-16 19:00N 46°14' W 001°48'2 5.0
2017-Sep-16 18:31N 46°12' W 001°48'1 0.8
2017-Sep-16 17:21N 46°11' W 001°49'1 1.8
2017-Sep-16 16:59N 46°11' W 001°49'1 2.8
2017-Sep-16 16:28N 46°11' W 001°51'1 2.1
2017-Sep-16 15:53N 46°12' W 001°52'0 0.3
2017-Sep-16 15:24N 46°13' W 001°52'0 0.3
2017-Sep-16 14:54N 46°13' W 001°52'1 2.2
2017-Sep-16 14:30N 46°13' W 001°53'3 5.1
2017-Sep-16 14:00N 46°13' W 001°49'0 0.2
2017-Sep-16 13:30N 46°13' W 001°49'0 0.5
2017-Sep-16 13:01N 46°14' W 001°50'0 0.7
2017-Sep-16 12:30N 46°13' W 001°50'1 2.3
2017-Sep-16 12:00N 46°13' W 001°52'1 1.1
2017-Sep-16 11:31N 46°14' W 001°51'0 0.2
2017-Sep-16 11:00N 46°14' W 001°51'0 0.6
2017-Sep-16 10:30N 46°14' W 001°52'5 9.1
2017-Sep-16 09:59N 46°16' W 001°46'1 2.4
2017-Sep-16 09:30N 46°17' W 001°44'1 2.2
2017-Sep-16 09:01N 46°18' W 001°44'2 3.9
2017-Sep-16 08:31N 46°18' W 001°47'1 2.8
2017-Sep-16 08:00N 46°18' W 001°49'1 2.6
2017-Sep-16 07:31N 46°17' W 001°50'3 5.5
2017-Sep-16 07:01N 46°20' W 001°50'1 1.6
2017-Sep-16 06:31N 46°21' W 001°50'1 2.6
2017-Sep-16 06:01N 46°20' W 001°49'1 3.0
2017-Sep-16 05:30N 46°21' W 001°50'2 4.0
2017-Sep-16 05:01N 46°23' W 001°49'2 4.0
2017-Sep-16 04:30N 46°25' W 001°48'2 4.1
2017-Sep-16 04:00N 46°27' W 001°48'2 4.3
2017-Sep-16 03:31N 46°29' W 001°47'0 0.1
2017-Sep-15 19:25N 46°30' W 001°48'2 4.0
2017-Sep-15 19:01N 46°28' W 001°48'4 7.2
2017-Sep-15 18:30N 46°28' W 001°53'3 5.3
2017-Sep-15 18:00N 46°28' W 001°57'0 0.4
2017-Sep-15 17:31N 46°28' W 001°57'0 0.5
2017-Sep-15 17:00N 46°28' W 001°57'2 3.5
2017-Sep-15 16:30N 46°26' W 001°57'1 1.3
2017-Sep-15 16:01N 46°27' W 001°58'0 0.6
2017-Sep-15 15:31N 46°27' W 001°57'0 0.3
2017-Sep-15 15:01N 46°27' W 001°57'1 1.6
2017-Sep-15 14:30N 46°28' W 001°57'2 3.3
2017-Sep-15 14:01N 46°28' W 001°59'1 1.3
2017-Sep-15 13:30N 46°28' W 002°00'0 0.4
2017-Sep-15 13:00N 46°28' W 002°00'0 0.2
2017-Sep-15 12:31N 46°28' W 002°00'1 1.3
2017-Sep-15 12:01N 46°29' W 002°01'1 1.5
2017-Sep-15 11:31N 46°29' W 002°02'1 2.0
2017-Sep-15 11:00N 46°29' W 002°03'1 1.1
2017-Sep-15 10:30N 46°29' W 002°03'0 0.4
2017-Sep-15 10:01N 46°29' W 002°04'1 1.5
2017-Sep-15 09:30N 46°29' W 002°05'2 3.1
2017-Sep-15 09:01N 46°29' W 002°02'1 1.3
2017-Sep-15 08:30N 46°29' W 002°03'1 2.8
2017-Sep-15 08:00N 46°30' W 002°02'0 0.5
2017-Sep-15 07:31N 46°30' W 002°03'1 1.7
2017-Sep-15 07:00N 46°30' W 002°04'1 1.2
2017-Sep-15 06:31N 46°30' W 002°03'1 2.2
2017-Sep-15 06:00N 46°31' W 002°03'1 2.6
2017-Sep-15 05:30N 46°30' W 002°02'1 2.5
2017-Sep-15 05:01N 46°30' W 002°00'2 3.5
2017-Sep-15 04:31N 46°29' W 001°58'2 3.6
2017-Sep-15 04:01N 46°29' W 001°56'2 3.6
2017-Sep-15 03:30N 46°28' W 001°53'2 3.6
2017-Sep-15 03:00N 46°28' W 001°51'2 3.7
2017-Sep-15 02:30N 46°28' W 001°48'2 3.6
2017-Sep-15 02:00N 46°30' W 001°48'0 0.0
2017-Sep-14 10:05N 46°30' W 001°47'0 0.0
2017-Sep-14 10:01N 46°30' W 001°47'0 0.0
2017-Sep-14 09:31N 46°30' W 001°47'0 0.0
2017-Sep-14 09:01N 46°30' W 001°47'0 0.0
2017-Sep-14 08:30N 46°30' W 001°47'  

Dump ship's entire track history